Time;durP1;ratioP1;P1;durP2;ratioP2;P2;SDS_P1;SDS_P2;PMS_P1;PMS_P2;Temp;Humidity;BMP_temperature;BMP_pressure;BME280_temperature;BME280_humidity;BME280_pressure;Samples;Min_cycle;Max_cycle;Signal;HPM_P1;HPM_P2
2023/08/02 00:12:45;;;;;;;5.53;2.15;;;;;;;14.07;80.34;98991.56;31086219;28;108231;-64
2023/08/02 00:27:45;;;;;;;6.07;2.17;;;;;;;13.94;80.57;98995.19;31086587;28;96707;-65
2023/08/02 00:42:46;;;;;;;4.43;1.95;;;;;;;13.80;80.03;99006.03;31084532;28;114949;-64
2023/08/02 00:57:46;;;;;;;4.13;2.00;;;;;;;13.75;80.42;99005.88;31083533;28;113207;-65
2023/08/02 01:12:49;;;;;;;5.75;2.22;;;;;;;13.52;80.37;99011.84;31082835;28;97019;-68
2023/08/02 01:28:15;;;;;;;6.20;2.20;;;;;;;13.29;80.78;99023.09;31101693;28;97229;-67
2023/08/02 01:43:15;;;;;;;3.73;2.03;;;;;;;13.11;80.72;99026.50;31101908;28;97839;-66
2023/08/02 01:58:16;;;;;;;6.10;2.13;;;;;;;13.11;80.80;99027.34;31101507;28;97201;-65
2023/08/02 02:13:21;;;;;;;3.85;2.17;;;;;;;12.95;81.06;99041.19;31099699;28;97196;-63
2023/08/02 02:28:21;;;;;;;6.30;2.27;;;;;;;12.79;81.15;99035.28;31098171;28;96715;-65
2023/08/02 02:43:22;;;;;;;7.18;2.33;;;;;;;12.64;81.33;99053.47;31095929;28;102866;-68
2023/08/02 02:58:22;;;;;;;6.10;2.17;;;;;;;12.59;81.61;99066.63;31094355;28;97591;-67
2023/08/02 03:13:22;;;;;;;8.90;2.42;;;;;;;12.55;81.61;99065.41;31092777;28;97405;-64
2023/08/02 03:28:23;;;;;;;4.35;2.42;;;;;;;12.55;81.71;99068.06;31089494;28;97210;-70
2023/08/02 03:43:23;;;;;;;5.60;2.55;;;;;;;12.53;82.13;99076.31;31086398;28;102623;-68
2023/08/02 03:58:23;;;;;;;7.05;2.67;;;;;;;12.68;82.36;99076.91;31086534;28;97296;-70
2023/08/02 04:13:24;;;;;;;4.80;2.70;;;;;;;12.94;82.21;99076.97;31077482;28;97181;-71
2023/08/02 04:28:24;;;;;;;3.92;2.20;;;;;;;13.34;82.15;99087.44;31068915;28;97096;-69
2023/08/02 04:43:24;;;;;;;7.82;2.72;;;;;;;13.93;82.45;99097.97;31079719;28;108816;-67
2023/08/02 04:58:25;;;;;;;5.10;2.25;;;;;;;14.54;81.95;99086.47;31078740;28;97629;-67
2023/08/02 05:13:26;;;;;;;5.20;2.25;;;;;;;14.60;80.94;99086.59;31062829;28;97243;-66
2023/08/02 05:28:26;;;;;;;7.07;2.00;;;;;;;15.13;81.21;99099.41;31055450;28;96815;-70
2023/08/02 05:43:27;;;;;;;5.85;1.88;;;;;;;15.77;80.99;99106.91;31056603;28;97898;-69
2023/08/02 05:58:27;;;;;;;2.53;1.75;;;;;;;16.36;79.80;99124.97;31053328;28;97273;-69
2023/08/02 06:13:28;;;;;;;4.28;1.88;;;;;;;17.24;79.09;99133.03;31068528;28;98159;-66
2023/08/02 06:28:28;;;;;;;6.13;1.70;;;;;;;17.77;77.15;99133.72;31075078;28;98200;-71
2023/08/02 06:43:29;;;;;;;3.80;1.77;;;;;;;18.57;74.68;99128.22;31073345;28;97782;-81
2023/08/02 06:58:30;;;;;;;14.82;4.43;;;;;;;19.10;71.98;99107.84;31078820;28;98661;-71
2023/08/02 07:13:36;;;;;;;3.33;1.55;;;;;;;19.95;69.60;99093.81;31075637;28;110406;-69
2023/08/02 07:28:36;;;;;;;2.67;1.60;;;;;;;20.63;64.90;99095.84;31074339;28;97263;-68
2023/08/02 07:43:36;;;;;;;2.07;1.50;;;;;;;21.92;61.95;99093.44;31074840;28;102765;-73
2023/08/02 07:58:37;;;;;;;4.38;1.80;;;;;;;22.30;57.96;99093.94;31076314;28;97347;-67
2023/08/02 08:13:37;;;;;;;2.17;1.55;;;;;;;22.75;55.68;99093.31;31074904;28;97560;-69
2023/08/02 08:28:38;;;;;;;;;;;;;;;23.48;53.54;99084.50;31066533;28;96890;-68
2023/08/02 08:43:39;;;;;;;3.55;1.70;;;;;;;24.11;49.11;99085.66;31064678;28;98246;-67
2023/08/02 08:58:41;;;;;;;3.43;1.50;;;;;;;23.86;46.37;99075.78;31061070;28;97523;-72
2023/08/02 09:13:42;;;;;;;4.00;1.43;;;;;;;24.49;45.31;99064.03;31057164;28;97162;-73
2023/08/02 09:29:07;;;;;;;4.13;1.83;;;;;;;24.55;43.93;99048.44;31059534;28;98530;-71
2023/08/02 09:44:08;;;;;;;5.07;1.90;;;;;;;24.52;43.34;99045.47;31076051;28;98629;-71
2023/08/02 09:59:09;;;;;;;2.83;1.50;;;;;;;24.92;41.55;99036.00;31095370;28;97126;-66
2023/08/02 10:14:10;;;;;;;2.55;1.10;;;;;;;26.24;38.98;99019.66;31099427;28;96811;-68
2023/08/02 10:29:11;;;;;;;2.87;1.10;;;;;;;26.92;37.81;99016.38;31096717;28;97172;-67
2023/08/02 10:44:13;;;;;;;2.60;1.20;;;;;;;27.63;36.47;99002.94;31093082;28;97548;-64
2023/08/02 10:59:13;;;;;;;4.57;1.17;;;;;;;27.75;36.33;98979.66;31091400;28;97824;-66
2023/08/02 11:14:25;;;;;;;2.97;0.90;;;;;;;28.33;34.24;98967.66;31090579;28;106465;-69
2023/08/02 11:29:26;;;;;;;5.30;0.90;;;;;;;29.26;34.37;98948.41;31085907;28;97701;-67
2023/08/02 11:44:26;;;;;;;1.85;0.70;;;;;;;28.59;34.51;98931.28;31082374;28;97476;-68
2023/08/02 11:59:27;;;;;;;1.88;0.90;;;;;;;27.73;33.97;98897.09;31062118;28;97182;-66
2023/08/02 12:14:28;;;;;;;2.15;0.85;;;;;;;28.25;33.38;98891.78;31075474;28;97281;-67
2023/08/02 12:29:30;;;;;;;2.33;0.70;;;;;;;28.32;32.17;98883.09;31072726;28;97475;-67
2023/08/02 12:44:30;;;;;;;1.30;0.70;;;;;;;27.22;34.34;98866.44;31071294;28;98036;-65
2023/08/02 12:59:31;;;;;;;2.05;0.65;;;;;;;27.15;34.28;98848.56;31117774;28;99488;-64
2023/08/02 13:14:31;;;;;;;9.10;1.10;;;;;;;26.92;33.51;98871.56;31198175;27;104464;-64
2023/08/02 13:29:31;;;;;;;1.73;0.90;;;;;;;26.22;34.45;98869.06;31195356;28;97286;-66
2023/08/02 13:44:32;;;;;;;4.15;1.30;;;;;;;26.44;34.24;98794.56;31087760;28;97147;-64
2023/08/02 13:59:32;;;;;;;2.90;0.93;;;;;;;26.12;33.44;98792.88;31088887;28;97356;-67
2023/08/02 14:14:32;;;;;;;2.38;0.90;;;;;;;26.11;33.63;98788.53;31088336;28;97187;-66
2023/08/02 14:29:34;;;;;;;1.85;0.82;;;;;;;26.35;34.22;98771.84;31084800;28;97440;-67
2023/08/02 14:44:34;;;;;;;2.33;1.00;;;;;;;25.74;34.78;98730.38;31079412;28;98408;-70
2023/08/02 14:59:34;;;;;;;1.98;0.90;;;;;;;25.28;35.38;98692.06;31073392;28;99591;-68
2023/08/02 15:14:34;;;;;;;3.47;0.82;;;;;;;25.51;35.44;98684.00;31077652;28;117781;-69
2023/08/02 15:29:35;;;;;;;2.70;0.95;;;;;;;25.59;36.11;98639.66;31077954;28;97883;-69
2023/08/02 15:44:35;;;;;;;4.30;1.38;;;;;;;25.55;35.95;98625.03;31072602;28;109090;-70
2023/08/02 15:59:37;;;;;;;3.67;0.80;;;;;;;24.85;36.96;98618.88;31074855;28;97451;-69
2023/08/02 16:14:37;;;;;;;2.85;0.95;;;;;;;24.25;38.57;98617.78;31074640;28;111223;-70
2023/08/02 16:29:37;;;;;;;4.65;1.35;;;;;;;24.13;39.78;98587.53;31071579;28;98040;-70
2023/08/02 16:44:38;;;;;;;7.32;1.65;;;;;;;23.97;40.92;98585.06;31071649;28;97373;-68
2023/08/02 16:59:38;;;;;;;8.00;1.20;;;;;;;23.72;41.37;98582.75;31071547;28;97018;-68
2023/08/02 17:14:38;;;;;;;2.58;1.10;;;;;;;23.43;42.42;98586.47;31071434;28;111260;-68
2023/08/02 17:29:39;;;;;;;4.43;1.13;;;;;;;23.26;43.92;98601.34;31073747;28;109704;-68
2023/08/02 17:44:39;;;;;;;2.85;1.20;;;;;;;22.99;45.12;98608.19;31069980;28;97418;-69
2023/08/02 17:59:39;;;;;;;1.80;1.20;;;;;;;22.58;46.32;98595.13;31072432;28;100168;-69
2023/08/02 18:14:39;;;;;;;;;;;;;;;22.12;48.02;98598.28;31086087;28;107107;-69
2023/08/02 18:29:40;;;;;;;3.80;1.40;;;;;;;22.03;48.98;98583.69;31086042;28;97372;-68
2023/08/02 18:44:42;;;;;;;3.22;1.33;;;;;;;21.92;50.04;98581.06;31087466;28;98350;-68
2023/08/02 18:59:43;;;;;;;3.37;2.00;;;;;;;21.46;51.87;98549.72;31126877;28;96869;-67
2023/08/02 19:14:46;;;;;;;5.33;1.90;;;;;;;21.09;53.30;98512.31;31082228;28;96747;-69
2023/08/02 19:29:46;;;;;;;3.97;1.80;;;;;;;20.88;54.19;98481.88;31080367;28;97603;-71
2023/08/02 19:44:48;;;;;;;5.37;1.60;;;;;;;20.72;54.63;98459.50;31074895;28;99120;-70
2023/08/02 19:59:48;;;;;;;5.33;2.10;;;;;;;20.48;55.85;98492.59;31077479;28;97280;-67
2023/08/02 20:14:49;;;;;;;3.60;1.60;;;;;;;20.13;57.57;98472.69;31077459;28;112407;-72
2023/08/02 20:29:49;;;;;;;3.38;1.73;;;;;;;19.90;58.79;98466.84;31062719;28;97525;-66
2023/08/02 20:44:50;;;;;;;2.60;1.60;;;;;;;19.47;60.45;98524.91;31056983;28;112097;-66
2023/08/02 20:59:50;;;;;;;5.40;1.95;;;;;;;19.20;62.02;98496.28;31083349;28;105316;-69
2023/08/02 21:14:50;;;;;;;4.40;1.85;;;;;;;18.97;63.06;98502.97;31078832;28;97106;-66
2023/08/02 21:29:51;;;;;;;5.88;2.20;;;;;;;18.89;64.16;98509.69;31080338;28;97125;-68
2023/08/02 21:44:56;;;;;;;3.38;1.88;;;;;;;18.80;65.03;98500.50;31097034;28;99673;-67
2023/08/02 21:59:56;;;;;;;4.13;2.10;;;;;;;18.94;65.36;98502.44;31100074;28;97601;-67
2023/08/02 22:15:01;;;;;;;4.65;2.10;;;;;;;19.08;65.78;98531.59;31099236;28;96845;-67
2023/08/02 22:30:02;;;;;;;7.30;1.83;;;;;;;18.96;66.41;98579.59;31097486;28;97076;-69
2023/08/02 22:45:02;;;;;;;7.82;2.05;;;;;;;18.79;67.83;98591.38;31095594;28;97350;-70
2023/08/02 23:00:04;;;;;;;4.10;1.55;;;;;;;18.80;68.71;98576.81;31094721;28;97304;-69
2023/08/02 23:15:14;;;;;;;2.57;1.40;;;;;;;18.48;70.15;98550.81;31093158;28;96977;-70
2023/08/02 23:30:18;;;;;;;2.20;1.73;;;;;;;18.24;71.98;98491.09;31092247;28;97456;-68
2023/08/02 23:45:18;;;;;;;3.50;1.30;;;;;;;18.15;73.58;98493.50;31089762;28;96666;-68
